sensor_id;sensor_type;location;lat;lon;timestamp;temperature;humidity
5956;DHT22;3004;48.080;11.600;2023-05-03T00:00:22;3.40;99.90
5956;DHT22;3004;48.080;11.600;2023-05-03T00:02:51;3.40;99.90
5956;DHT22;3004;48.080;11.600;2023-05-03T00:05:18;3.30;99.90
5956;DHT22;3004;48.080;11.600;2023-05-03T00:07:46;3.30;99.90
5956;DHT22;3004;48.080;11.600;2023-05-03T00:10:15;3.30;99.90
5956;DHT22;3004;48.080;11.600;2023-05-03T00:12:43;3.20;99.90
5956;DHT22;3004;48.080;11.600;2023-05-03T00:15:11;3.20;99.90
5956;DHT22;3004;48.080;11.600;2023-05-03T00:17:38;3.20;99.90
5956;DHT22;3004;48.080;11.600;2023-05-03T00:20:06;3.20;99.90
5956;DHT22;3004;48.080;11.600;2023-05-03T00:22:34;3.10;99.90
5956;DHT22;3004;48.080;11.600;2023-05-03T00:25:01;3.10;99.90
5956;DHT22;3004;48.080;11.600;2023-05-03T00:27:29;2.90;99.90
5956;DHT22;3004;48.080;11.600;2023-05-03T00:29:56;2.80;99.90
5956;DHT22;3004;48.080;11.600;2023-05-03T00:32:24;2.80;99.90
5956;DHT22;3004;48.080;11.600;2023-05-03T00:34:52;2.80;99.90
5956;DHT22;3004;48.080;11.600;2023-05-03T00:37:19;2.80;99.90
5956;DHT22;3004;48.080;11.600;2023-05-03T00:39:46;2.70;99.90
5956;DHT22;3004;48.080;11.600;2023-05-03T00:42:14;2.70;99.90
5956;DHT22;3004;48.080;11.600;2023-05-03T00:44:41;2.70;99.90
5956;DHT22;3004;48.080;11.600;2023-05-03T00:47:08;2.70;99.90
5956;DHT22;3004;48.080;11.600;2023-05-03T00:49:36;2.60;99.90
5956;DHT22;3004;48.080;11.600;2023-05-03T00:52:04;2.60;99.90
5956;DHT22;3004;48.080;11.600;2023-05-03T00:54:32;2.70;99.90
5956;DHT22;3004;48.080;11.600;2023-05-03T00:57:00;2.70;99.90
5956;DHT22;3004;48.080;11.600;2023-05-03T00:59:27;2.60;99.90
5956;DHT22;3004;48.080;11.600;2023-05-03T01:01:54;2.60;99.90
5956;DHT22;3004;48.080;11.600;2023-05-03T01:04:22;2.60;99.90
5956;DHT22;3004;48.080;11.600;2023-05-03T01:07:02;2.70;99.90
5956;DHT22;3004;48.080;11.600;2023-05-03T01:09:38;2.70;99.90
5956;DHT22;3004;48.080;11.600;2023-05-03T01:12:18;2.70;99.90
5956;DHT22;3004;48.080;11.600;2023-05-03T01:14:53;2.60;99.90
5956;DHT22;3004;48.080;11.600;2023-05-03T01:17:27;2.50;99.90
5956;DHT22;3004;48.080;11.600;2023-05-03T01:20:00;2.60;99.90
5956;DHT22;3004;48.080;11.600;2023-05-03T01:22:38;2.60;99.90
5956;DHT22;3004;48.080;11.600;2023-05-03T01:25:10;2.60;99.90
5956;DHT22;3004;48.080;11.600;2023-05-03T01:27:38;2.50;99.90
5956;DHT22;3004;48.080;11.600;2023-05-03T01:30:07;2.60;99.90
5956;DHT22;3004;48.080;11.600;2023-05-03T01:32:43;2.60;99.90
5956;DHT22;3004;48.080;11.600;2023-05-03T01:35:19;2.60;99.90
5956;DHT22;3004;48.080;11.600;2023-05-03T01:37:49;2.60;99.90
5956;DHT22;3004;48.080;11.600;2023-05-03T01:40:20;2.50;99.90
5956;DHT22;3004;48.080;11.600;2023-05-03T01:42:49;2.50;99.90
5956;DHT22;3004;48.080;11.600;2023-05-03T01:45:17;2.50;99.90
5956;DHT22;3004;48.080;11.600;2023-05-03T01:47:44;2.50;99.90
5956;DHT22;3004;48.080;11.600;2023-05-03T01:50:11;2.60;99.90
5956;DHT22;3004;48.080;11.600;2023-05-03T01:52:38;2.70;99.90
5956;DHT22;3004;48.080;11.600;2023-05-03T01:55:06;2.80;99.90
5956;DHT22;3004;48.080;11.600;2023-05-03T01:57:34;2.90;99.90
5956;DHT22;3004;48.080;11.600;2023-05-03T02:00:01;2.80;99.90
5956;DHT22;3004;48.080;11.600;2023-05-03T02:02:29;2.90;99.90
5956;DHT22;3004;48.080;11.600;2023-05-03T02:04:56;2.90;99.90
5956;DHT22;3004;48.080;11.600;2023-05-03T02:07:23;3.10;99.90
5956;DHT22;3004;48.080;11.600;2023-05-03T02:09:53;3.20;99.90
5956;DHT22;3004;48.080;11.600;2023-05-03T02:12:20;3.20;99.90
5956;DHT22;3004;48.080;11.600;2023-05-03T02:14:48;3.20;99.90
5956;DHT22;3004;48.080;11.600;2023-05-03T02:17:16;3.30;99.90
5956;DHT22;3004;48.080;11.600;2023-05-03T02:19:43;3.40;99.90
5956;DHT22;3004;48.080;11.600;2023-05-03T02:22:10;3.30;99.90
5956;DHT22;3004;48.080;11.600;2023-05-03T02:24:37;3.30;99.90
5956;DHT22;3004;48.080;11.600;2023-05-03T02:27:04;3.40;99.90
5956;DHT22;3004;48.080;11.600;2023-05-03T02:29:31;3.40;99.90
5956;DHT22;3004;48.080;11.600;2023-05-03T02:32:02;3.50;99.90
5956;DHT22;3004;48.080;11.600;2023-05-03T02:34:32;3.50;99.90
5956;DHT22;3004;48.080;11.600;2023-05-03T02:36:59;3.50;99.90
5956;DHT22;3004;48.080;11.600;2023-05-03T02:39:26;3.60;99.90
5956;DHT22;3004;48.080;11.600;2023-05-03T02:41:54;3.60;99.90
5956;DHT22;3004;48.080;11.600;2023-05-03T02:44:21;3.50;99.90
5956;DHT22;3004;48.080;11.600;2023-05-03T02:46:48;3.50;99.90
5956;DHT22;3004;48.080;11.600;2023-05-03T02:49:17;3.60;99.90
5956;DHT22;3004;48.080;11.600;2023-05-03T02:51:44;3.60;99.90
5956;DHT22;3004;48.080;11.600;2023-05-03T02:54:11;3.60;99.90
5956;DHT22;3004;48.080;11.600;2023-05-03T02:56:38;3.70;99.90
5956;DHT22;3004;48.080;11.600;2023-05-03T02:59:05;3.60;99.90
5956;DHT22;3004;48.080;11.600;2023-05-03T03:01:32;3.70;99.90
5956;DHT22;3004;48.080;11.600;2023-05-03T03:03:59;3.70;99.90
5956;DHT22;3004;48.080;11.600;2023-05-03T03:06:28;3.70;99.90
5956;DHT22;3004;48.080;11.600;2023-05-03T03:08:55;3.80;99.90
5956;DHT22;3004;48.080;11.600;2023-05-03T03:11:25;3.80;99.90
5956;DHT22;3004;48.080;11.600;2023-05-03T03:13:52;3.80;99.90
5956;DHT22;3004;48.080;11.600;2023-05-03T03:16:19;3.80;99.90
5956;DHT22;3004;48.080;11.600;2023-05-03T03:18:49;3.90;99.90
5956;DHT22;3004;48.080;11.600;2023-05-03T03:21:16;3.90;99.90
5956;DHT22;3004;48.080;11.600;2023-05-03T03:23:45;4.00;99.90
5956;DHT22;3004;48.080;11.600;2023-05-03T03:26:12;4.00;99.90
5956;DHT22;3004;48.080;11.600;2023-05-03T03:28:39;4.10;99.90
5956;DHT22;3004;48.080;11.600;2023-05-03T03:31:05;4.10;99.90
5956;DHT22;3004;48.080;11.600;2023-05-03T03:33:33;4.20;99.90
5956;DHT22;3004;48.080;11.600;2023-05-03T03:36:00;4.20;99.90
5956;DHT22;3004;48.080;11.600;2023-05-03T03:38:27;4.20;99.90
5956;DHT22;3004;48.080;11.600;2023-05-03T03:40:56;4.30;99.90
5956;DHT22;3004;48.080;11.600;2023-05-03T03:43:23;4.30;99.90
5956;DHT22;3004;48.080;11.600;2023-05-03T03:45:50;4.40;99.90
5956;DHT22;3004;48.080;11.600;2023-05-03T03:48:19;4.40;99.90
5956;DHT22;3004;48.080;11.600;2023-05-03T03:50:45;4.30;99.90
5956;DHT22;3004;48.080;11.600;2023-05-03T03:53:13;4.40;99.90
5956;DHT22;3004;48.080;11.600;2023-05-03T03:55:40;4.50;99.90
5956;DHT22;3004;48.080;11.600;2023-05-03T03:58:11;4.50;99.90
5956;DHT22;3004;48.080;11.600;2023-05-03T04:00:38;4.50;99.90
5956;DHT22;3004;48.080;11.600;2023-05-03T04:03:05;4.50;99.90
5956;DHT22;3004;48.080;11.600;2023-05-03T04:05:32;4.50;99.90
5956;DHT22;3004;48.080;11.600;2023-05-03T04:08:03;4.50;99.90
5956;DHT22;3004;48.080;11.600;2023-05-03T04:10:30;4.60;99.90
5956;DHT22;3004;48.080;11.600;2023-05-03T04:12:57;4.60;99.90
5956;DHT22;3004;48.080;11.600;2023-05-03T04:15:27;4.70;99.90
5956;DHT22;3004;48.080;11.600;2023-05-03T04:17:54;4.70;99.90
5956;DHT22;3004;48.080;11.600;2023-05-03T04:20:20;4.70;99.90
5956;DHT22;3004;48.080;11.600;2023-05-03T04:22:47;4.80;99.90
5956;DHT22;3004;48.080;11.600;2023-05-03T04:25:14;4.80;99.90
5956;DHT22;3004;48.080;11.600;2023-05-03T04:27:41;4.90;99.90
5956;DHT22;3004;48.080;11.600;2023-05-03T04:30:08;4.90;99.90
5956;DHT22;3004;48.080;11.600;2023-05-03T04:32:49;4.90;99.90
5956;DHT22;3004;48.080;11.600;2023-05-03T04:35:18;5.00;99.90
5956;DHT22;3004;48.080;11.600;2023-05-03T04:37:45;5.00;99.90
5956;DHT22;3004;48.080;11.600;2023-05-03T04:40:12;5.10;99.90
5956;DHT22;3004;48.080;11.600;2023-05-03T04:42:40;5.10;99.90
5956;DHT22;3004;48.080;11.600;2023-05-03T04:45:09;5.10;99.90
5956;DHT22;3004;48.080;11.600;2023-05-03T04:47:38;5.10;99.90
5956;DHT22;3004;48.080;11.600;2023-05-03T04:50:13;5.20;99.90
5956;DHT22;3004;48.080;11.600;2023-05-03T04:52:39;5.20;99.90
5956;DHT22;3004;48.080;11.600;2023-05-03T04:55:22;5.30;99.90
5956;DHT22;3004;48.080;11.600;2023-05-03T04:58:06;5.40;99.90
5956;DHT22;3004;48.080;11.600;2023-05-03T05:00:40;5.50;99.90
5956;DHT22;3004;48.080;11.600;2023-05-03T05:03:08;5.50;99.90
5956;DHT22;3004;48.080;11.600;2023-05-03T05:05:39;5.60;99.90
5956;DHT22;3004;48.080;11.600;2023-05-03T05:08:06;5.70;99.90
5956;DHT22;3004;48.080;11.600;2023-05-03T05:10:39;5.80;99.90
5956;DHT22;3004;48.080;11.600;2023-05-03T05:13:06;5.80;99.90
5956;DHT22;3004;48.080;11.600;2023-05-03T05:15:36;5.90;99.90
5956;DHT22;3004;48.080;11.600;2023-05-03T05:18:06;5.80;99.90
5956;DHT22;3004;48.080;11.600;2023-05-03T05:20:36;5.80;99.90
5956;DHT22;3004;48.080;11.600;2023-05-03T05:23:05;5.90;99.90
5956;DHT22;3004;48.080;11.600;2023-05-03T05:25:32;6.00;99.90
5956;DHT22;3004;48.080;11.600;2023-05-03T05:28:00;6.10;99.90
5956;DHT22;3004;48.080;11.600;2023-05-03T05:30:28;6.30;99.90
5956;DHT22;3004;48.080;11.600;2023-05-03T05:32:56;6.40;99.90
5956;DHT22;3004;48.080;11.600;2023-05-03T05:35:26;6.50;99.90
5956;DHT22;3004;48.080;11.600;2023-05-03T05:37:53;6.70;99.90
5956;DHT22;3004;48.080;11.600;2023-05-03T05:40:24;6.80;99.90
5956;DHT22;3004;48.080;11.600;2023-05-03T05:42:51;6.90;99.90
5956;DHT22;3004;48.080;11.600;2023-05-03T05:45:18;7.00;99.90
5956;DHT22;3004;48.080;11.600;2023-05-03T05:47:46;7.00;99.90
5956;DHT22;3004;48.080;11.600;2023-05-03T05:50:15;7.10;99.90
5956;DHT22;3004;48.080;11.600;2023-05-03T05:52:43;7.10;99.90
5956;DHT22;3004;48.080;11.600;2023-05-03T05:55:10;7.10;99.90
5956;DHT22;3004;48.080;11.600;2023-05-03T06:00:18;7.00;99.90
5956;DHT22;3004;48.080;11.600;2023-05-03T06:02:46;7.10;99.90
5956;DHT22;3004;48.080;11.600;2023-05-03T06:05:13;7.10;99.90
5956;DHT22;3004;48.080;11.600;2023-05-03T06:07:42;7.10;99.90
5956;DHT22;3004;48.080;11.600;2023-05-03T06:10:13;7.20;99.90
5956;DHT22;3004;48.080;11.600;2023-05-03T06:12:40;7.30;99.90
5956;DHT22;3004;48.080;11.600;2023-05-03T06:15:08;7.30;99.90
5956;DHT22;3004;48.080;11.600;2023-05-03T06:17:37;7.30;99.90
5956;DHT22;3004;48.080;11.600;2023-05-03T06:20:05;7.40;99.90
5956;DHT22;3004;48.080;11.600;2023-05-03T06:22:36;7.20;99.90
5956;DHT22;3004;48.080;11.600;2023-05-03T06:25:03;7.20;99.90
5956;DHT22;3004;48.080;11.600;2023-05-03T06:27:32;7.30;99.90
5956;DHT22;3004;48.080;11.600;2023-05-03T06:29:59;7.30;99.90
5956;DHT22;3004;48.080;11.600;2023-05-03T06:32:26;7.50;99.90
5956;DHT22;3004;48.080;11.600;2023-05-03T06:34:55;7.60;99.90
5956;DHT22;3004;48.080;11.600;2023-05-03T06:37:25;7.70;99.90
5956;DHT22;3004;48.080;11.600;2023-05-03T06:39:52;7.50;99.90
5956;DHT22;3004;48.080;11.600;2023-05-03T06:42:18;7.50;99.90
5956;DHT22;3004;48.080;11.600;2023-05-03T06:44:45;7.60;99.90
5956;DHT22;3004;48.080;11.600;2023-05-03T06:47:12;7.60;99.90
5956;DHT22;3004;48.080;11.600;2023-05-03T06:49:39;7.60;99.90
5956;DHT22;3004;48.080;11.600;2023-05-03T06:52:08;7.60;99.90
5956;DHT22;3004;48.080;11.600;2023-05-03T06:54:35;7.70;99.90
5956;DHT22;3004;48.080;11.600;2023-05-03T06:57:02;7.50;99.90
5956;DHT22;3004;48.080;11.600;2023-05-03T06:59:29;7.40;99.90
5956;DHT22;3004;48.080;11.600;2023-05-03T07:01:56;7.20;99.90
5956;DHT22;3004;48.080;11.600;2023-05-03T07:04:23;7.30;99.90
5956;DHT22;3004;48.080;11.600;2023-05-03T07:06:50;7.20;99.90
5956;DHT22;3004;48.080;11.600;2023-05-03T07:09:19;7.30;99.90
5956;DHT22;3004;48.080;11.600;2023-05-03T07:11:48;7.40;99.90
5956;DHT22;3004;48.080;11.600;2023-05-03T07:14:16;7.30;99.90
5956;DHT22;3004;48.080;11.600;2023-05-03T07:16:43;7.20;99.90
5956;DHT22;3004;48.080;11.600;2023-05-03T07:19:10;7.30;99.90
5956;DHT22;3004;48.080;11.600;2023-05-03T07:21:37;7.20;99.90
5956;DHT22;3004;48.080;11.600;2023-05-03T07:24:05;7.30;99.90
5956;DHT22;3004;48.080;11.600;2023-05-03T07:26:33;7.20;99.90
5956;DHT22;3004;48.080;11.600;2023-05-03T07:29:00;7.20;99.90
5956;DHT22;3004;48.080;11.600;2023-05-03T07:31:27;7.20;99.90
5956;DHT22;3004;48.080;11.600;2023-05-03T07:33:54;7.20;99.90
5956;DHT22;3004;48.080;11.600;2023-05-03T07:36:22;7.30;99.90
5956;DHT22;3004;48.080;11.600;2023-05-03T07:38:49;7.40;99.90
5956;DHT22;3004;48.080;11.600;2023-05-03T07:41:16;7.50;99.90
5956;DHT22;3004;48.080;11.600;2023-05-03T07:43:45;7.30;99.90
5956;DHT22;3004;48.080;11.600;2023-05-03T07:46:12;7.40;99.90
5956;DHT22;3004;48.080;11.600;2023-05-03T07:48:39;7.40;99.90
5956;DHT22;3004;48.080;11.600;2023-05-03T07:51:06;7.50;99.90
5956;DHT22;3004;48.080;11.600;2023-05-03T07:53:33;7.30;99.90
5956;DHT22;3004;48.080;11.600;2023-05-03T07:56:02;7.40;99.90
5956;DHT22;3004;48.080;11.600;2023-05-03T07:58:29;7.40;99.90
5956;DHT22;3004;48.080;11.600;2023-05-03T08:00:58;7.60;99.90
5956;DHT22;3004;48.080;11.600;2023-05-03T08:03:25;7.50;99.90
5956;DHT22;3004;48.080;11.600;2023-05-03T08:05:52;7.60;99.90
5956;DHT22;3004;48.080;11.600;2023-05-03T08:08:19;7.70;99.90
5956;DHT22;3004;48.080;11.600;2023-05-03T08:10:46;7.80;99.90
5956;DHT22;3004;48.080;11.600;2023-05-03T08:13:13;7.90;99.90
5956;DHT22;3004;48.080;11.600;2023-05-03T08:15:41;7.80;99.90
5956;DHT22;3004;48.080;11.600;2023-05-03T08:18:11;7.90;99.90
5956;DHT22;3004;48.080;11.600;2023-05-03T08:20:38;7.90;99.90
5956;DHT22;3004;48.080;11.600;2023-05-03T08:23:14;8.10;99.90
5956;DHT22;3004;48.080;11.600;2023-05-03T08:25:43;8.40;99.90
5956;DHT22;3004;48.080;11.600;2023-05-03T08:28:10;8.40;99.90
5956;DHT22;3004;48.080;11.600;2023-05-03T08:30:37;8.20;99.90
5956;DHT22;3004;48.080;11.600;2023-05-03T08:33:04;8.40;99.90
5956;DHT22;3004;48.080;11.600;2023-05-03T08:35:35;8.60;99.90
5956;DHT22;3004;48.080;11.600;2023-05-03T08:38:02;8.70;99.90
5956;DHT22;3004;48.080;11.600;2023-05-03T08:40:30;8.80;99.90
5956;DHT22;3004;48.080;11.600;2023-05-03T08:43:06;8.60;99.90
5956;DHT22;3004;48.080;11.600;2023-05-03T08:45:33;8.50;99.90
5956;DHT22;3004;48.080;11.600;2023-05-03T08:48:00;8.60;99.90
5956;DHT22;3004;48.080;11.600;2023-05-03T08:50:29;8.70;99.90
5956;DHT22;3004;48.080;11.600;2023-05-03T08:52:58;8.90;99.90
5956;DHT22;3004;48.080;11.600;2023-05-03T08:55:25;9.00;99.90
5956;DHT22;3004;48.080;11.600;2023-05-03T08:57:54;9.10;99.90
5956;DHT22;3004;48.080;11.600;2023-05-03T09:00:27;9.20;99.90
5956;DHT22;3004;48.080;11.600;2023-05-03T09:02:54;9.20;99.90
5956;DHT22;3004;48.080;11.600;2023-05-03T09:05:32;9.40;99.90
5956;DHT22;3004;48.080;11.600;2023-05-03T09:08:06;9.60;99.90
5956;DHT22;3004;48.080;11.600;2023-05-03T09:10:37;9.70;99.90
5956;DHT22;3004;48.080;11.600;2023-05-03T09:13:04;10.00;99.90
5956;DHT22;3004;48.080;11.600;2023-05-03T09:15:32;10.50;99.90
5956;DHT22;3004;48.080;11.600;2023-05-03T09:18:07;10.80;99.90
5956;DHT22;3004;48.080;11.600;2023-05-03T09:20:35;11.00;99.90
5956;DHT22;3004;48.080;11.600;2023-05-03T09:23:05;11.20;99.90
5956;DHT22;3004;48.080;11.600;2023-05-03T09:25:42;11.00;99.90
5956;DHT22;3004;48.080;11.600;2023-05-03T09:28:10;11.10;99.90
5956;DHT22;3004;48.080;11.600;2023-05-03T09:30:37;10.90;99.90
5956;DHT22;3004;48.080;11.600;2023-05-03T09:33:04;10.80;99.90
5956;DHT22;3004;48.080;11.600;2023-05-03T09:35:32;11.10;99.90
5956;DHT22;3004;48.080;11.600;2023-05-03T09:38:00;11.40;99.90
5956;DHT22;3004;48.080;11.600;2023-05-03T09:40:28;11.40;99.90
5956;DHT22;3004;48.080;11.600;2023-05-03T09:43:06;11.40;99.90
5956;DHT22;3004;48.080;11.600;2023-05-03T09:45:34;11.40;99.90
5956;DHT22;3004;48.080;11.600;2023-05-03T09:48:02;11.80;99.90
5956;DHT22;3004;48.080;11.600;2023-05-03T09:50:34;11.70;99.90
5956;DHT22;3004;48.080;11.600;2023-05-03T09:53:02;12.10;99.90
5956;DHT22;3004;48.080;11.600;2023-05-03T09:55:33;12.20;99.90
5956;DHT22;3004;48.080;11.600;2023-05-03T09:58:01;12.10;99.90
5956;DHT22;3004;48.080;11.600;2023-05-03T10:00:34;11.70;99.90
5956;DHT22;3004;48.080;11.600;2023-05-03T10:03:05;12.30;99.90
5956;DHT22;3004;48.080;11.600;2023-05-03T10:05:38;12.60;99.90
5956;DHT22;3004;48.080;11.600;2023-05-03T10:08:06;12.50;99.90
5956;DHT22;3004;48.080;11.600;2023-05-03T10:10:39;12.60;99.90
5956;DHT22;3004;48.080;11.600;2023-05-03T10:13:10;12.60;99.90
5956;DHT22;3004;48.080;11.600;2023-05-03T10:15:39;12.60;99.90
5956;DHT22;3004;48.080;11.600;2023-05-03T10:18:09;12.60;99.90
5956;DHT22;3004;48.080;11.600;2023-05-03T10:20:40;12.60;99.90
5956;DHT22;3004;48.080;11.600;2023-05-03T10:23:12;12.70;99.90
5956;DHT22;3004;48.080;11.600;2023-05-03T10:26:14;12.70;99.90
5956;DHT22;3004;48.080;11.600;2023-05-03T10:28:41;12.60;99.90
5956;DHT22;3004;48.080;11.600;2023-05-03T10:31:42;12.40;99.90
5956;DHT22;3004;48.080;11.600;2023-05-03T10:34:22;12.30;99.90
5956;DHT22;3004;48.080;11.600;2023-05-03T10:36:50;12.20;99.90
5956;DHT22;3004;48.080;11.600;2023-05-03T10:39:20;12.10;99.90
5956;DHT22;3004;48.080;11.600;2023-05-03T10:42:00;12.10;99.90
5956;DHT22;3004;48.080;11.600;2023-05-03T10:44:37;12.30;99.90
5956;DHT22;3004;48.080;11.600;2023-05-03T10:47:15;12.30;99.90
5956;DHT22;3004;48.080;11.600;2023-05-03T10:49:42;12.50;99.90
5956;DHT22;3004;48.080;11.600;2023-05-03T10:52:48;12.40;99.90
5956;DHT22;3004;48.080;11.600;2023-05-03T10:55:21;12.40;99.90
5956;DHT22;3004;48.080;11.600;2023-05-03T10:57:53;12.50;99.90
5956;DHT22;3004;48.080;11.600;2023-05-03T11:00:24;12.70;99.90
5956;DHT22;3004;48.080;11.600;2023-05-03T11:03:19;12.50;99.90
5956;DHT22;3004;48.080;11.600;2023-05-03T11:05:53;12.50;99.90
5956;DHT22;3004;48.080;11.600;2023-05-03T11:08:22;12.50;99.90
5956;DHT22;3004;48.080;11.600;2023-05-03T11:10:57;12.60;99.90
5956;DHT22;3004;48.080;11.600;2023-05-03T11:13:27;13.00;99.90
5956;DHT22;3004;48.080;11.600;2023-05-03T11:15:54;13.10;99.90
5956;DHT22;3004;48.080;11.600;2023-05-03T11:18:25;13.10;99.90
5956;DHT22;3004;48.080;11.600;2023-05-03T11:20:52;13.50;99.90
5956;DHT22;3004;48.080;11.600;2023-05-03T11:23:24;13.50;99.90
5956;DHT22;3004;48.080;11.600;2023-05-03T11:25:52;13.60;99.90
5956;DHT22;3004;48.080;11.600;2023-05-03T11:28:19;13.50;99.90
5956;DHT22;3004;48.080;11.600;2023-05-03T11:30:48;13.40;99.90
5956;DHT22;3004;48.080;11.600;2023-05-03T11:33:21;13.40;99.90
5956;DHT22;3004;48.080;11.600;2023-05-03T11:35:54;13.60;99.90
5956;DHT22;3004;48.080;11.600;2023-05-03T11:38:24;13.40;99.90
5956;DHT22;3004;48.080;11.600;2023-05-03T11:40:52;13.70;99.90
5956;DHT22;3004;48.080;11.600;2023-05-03T11:43:19;13.60;99.90
5956;DHT22;3004;48.080;11.600;2023-05-03T11:45:48;13.60;99.90
5956;DHT22;3004;48.080;11.600;2023-05-03T11:48:18;13.50;99.90
5956;DHT22;3004;48.080;11.600;2023-05-03T11:50:46;14.00;99.90
5956;DHT22;3004;48.080;11.600;2023-05-03T11:53:17;13.80;99.90
5956;DHT22;3004;48.080;11.600;2023-05-03T11:55:46;13.90;99.90
5956;DHT22;3004;48.080;11.600;2023-05-03T11:58:14;14.10;99.90
5956;DHT22;3004;48.080;11.600;2023-05-03T12:00:50;14.70;99.90
5956;DHT22;3004;48.080;11.600;2023-05-03T12:03:22;14.30;99.90
5956;DHT22;3004;48.080;11.600;2023-05-03T12:05:50;14.20;99.90
5956;DHT22;3004;48.080;11.600;2023-05-03T12:08:17;14.00;99.90
5956;DHT22;3004;48.080;11.600;2023-05-03T12:10:46;14.00;99.90
5956;DHT22;3004;48.080;11.600;2023-05-03T12:13:13;14.00;99.90
5956;DHT22;3004;48.080;11.600;2023-05-03T12:15:55;14.10;99.90
5956;DHT22;3004;48.080;11.600;2023-05-03T12:18:44;13.80;99.90
5956;DHT22;3004;48.080;11.600;2023-05-03T12:21:11;13.80;99.90
5956;DHT22;3004;48.080;11.600;2023-05-03T12:23:46;13.80;99.90
5956;DHT22;3004;48.080;11.600;2023-05-03T12:26:15;13.80;99.90
5956;DHT22;3004;48.080;11.600;2023-05-03T12:28:42;13.80;99.90
5956;DHT22;3004;48.080;11.600;2023-05-03T12:31:08;13.90;99.90
5956;DHT22;3004;48.080;11.600;2023-05-03T12:33:37;14.00;99.90
5956;DHT22;3004;48.080;11.600;2023-05-03T12:36:05;14.20;99.90
5956;DHT22;3004;48.080;11.600;2023-05-03T12:38:35;14.60;99.90
5956;DHT22;3004;48.080;11.600;2023-05-03T12:41:02;14.90;99.90
5956;DHT22;3004;48.080;11.600;2023-05-03T12:43:32;14.90;99.90
5956;DHT22;3004;48.080;11.600;2023-05-03T12:45:59;14.90;99.90
5956;DHT22;3004;48.080;11.600;2023-05-03T12:48:28;15.10;99.90
5956;DHT22;3004;48.080;11.600;2023-05-03T12:50:56;15.00;99.90
5956;DHT22;3004;48.080;11.600;2023-05-03T12:53:26;14.70;99.90
5956;DHT22;3004;48.080;11.600;2023-05-03T12:55:56;15.00;99.90
5956;DHT22;3004;48.080;11.600;2023-05-03T12:58:26;14.90;99.90
5956;DHT22;3004;48.080;11.600;2023-05-03T13:00:53;15.20;99.90
5956;DHT22;3004;48.080;11.600;2023-05-03T13:03:25;15.50;99.90
5956;DHT22;3004;48.080;11.600;2023-05-03T13:05:52;15.40;99.90
5956;DHT22;3004;48.080;11.600;2023-05-03T13:08:22;15.20;99.90
5956;DHT22;3004;48.080;11.600;2023-05-03T13:10:49;15.40;99.90
5956;DHT22;3004;48.080;11.600;2023-05-03T13:13:17;15.40;99.90
5956;DHT22;3004;48.080;11.600;2023-05-03T13:15:45;15.60;99.90
5956;DHT22;3004;48.080;11.600;2023-05-03T13:18:13;15.50;99.90
5956;DHT22;3004;48.080;11.600;2023-05-03T13:20:40;16.00;99.90
5956;DHT22;3004;48.080;11.600;2023-05-03T13:23:10;15.50;99.90
5956;DHT22;3004;48.080;11.600;2023-05-03T13:25:39;15.20;99.90
5956;DHT22;3004;48.080;11.600;2023-05-03T13:28:06;15.50;99.90
5956;DHT22;3004;48.080;11.600;2023-05-03T13:30:33;15.70;99.90
5956;DHT22;3004;48.080;11.600;2023-05-03T13:33:05;15.70;99.90
5956;DHT22;3004;48.080;11.600;2023-05-03T13:35:36;15.50;99.90
5956;DHT22;3004;48.080;11.600;2023-05-03T13:38:03;15.10;99.90
5956;DHT22;3004;48.080;11.600;2023-05-03T13:40:30;14.90;99.90
5956;DHT22;3004;48.080;11.600;2023-05-03T13:42:58;15.00;99.90
5956;DHT22;3004;48.080;11.600;2023-05-03T13:45:25;15.00;99.90
5956;DHT22;3004;48.080;11.600;2023-05-03T13:47:56;15.10;99.90
5956;DHT22;3004;48.080;11.600;2023-05-03T13:50:28;15.80;99.90
5956;DHT22;3004;48.080;11.600;2023-05-03T13:52:55;16.10;99.90
5956;DHT22;3004;48.080;11.600;2023-05-03T13:55:22;15.80;99.90
5956;DHT22;3004;48.080;11.600;2023-05-03T13:57:50;16.20;99.90
5956;DHT22;3004;48.080;11.600;2023-05-03T14:00:19;16.40;99.90
5956;DHT22;3004;48.080;11.600;2023-05-03T14:02:46;15.70;99.90
5956;DHT22;3004;48.080;11.600;2023-05-03T14:05:14;15.30;99.90
5956;DHT22;3004;48.080;11.600;2023-05-03T14:07:41;15.10;99.90
5956;DHT22;3004;48.080;11.600;2023-05-03T14:10:09;15.30;99.90
5956;DHT22;3004;48.080;11.600;2023-05-03T14:12:36;15.70;99.90
5956;DHT22;3004;48.080;11.600;2023-05-03T14:15:03;16.10;99.90
5956;DHT22;3004;48.080;11.600;2023-05-03T14:17:32;16.30;99.90
5956;DHT22;3004;48.080;11.600;2023-05-03T14:20:00;16.20;99.90
5956;DHT22;3004;48.080;11.600;2023-05-03T14:22:27;16.00;99.90
5956;DHT22;3004;48.080;11.600;2023-05-03T14:24:53;16.10;99.90
5956;DHT22;3004;48.080;11.600;2023-05-03T14:27:21;15.70;99.90
5956;DHT22;3004;48.080;11.600;2023-05-03T14:29:48;15.40;99.90
5956;DHT22;3004;48.080;11.600;2023-05-03T14:32:15;15.50;99.90
5956;DHT22;3004;48.080;11.600;2023-05-03T14:34:47;15.30;99.90
5956;DHT22;3004;48.080;11.600;2023-05-03T14:37:14;15.20;99.90
5956;DHT22;3004;48.080;11.600;2023-05-03T14:39:43;15.00;99.90
5956;DHT22;3004;48.080;11.600;2023-05-03T14:42:10;14.90;99.90
5956;DHT22;3004;48.080;11.600;2023-05-03T14:44:37;14.90;99.90
5956;DHT22;3004;48.080;11.600;2023-05-03T14:47:08;14.90;99.90
5956;DHT22;3004;48.080;11.600;2023-05-03T14:49:50;14.80;99.90
5956;DHT22;3004;48.080;11.600;2023-05-03T14:52:23;14.70;99.90
5956;DHT22;3004;48.080;11.600;2023-05-03T14:54:50;14.90;99.90
5956;DHT22;3004;48.080;11.600;2023-05-03T14:57:19;15.30;99.90
5956;DHT22;3004;48.080;11.600;2023-05-03T14:59:46;15.50;99.90
5956;DHT22;3004;48.080;11.600;2023-05-03T15:02:20;15.70;99.90
5956;DHT22;3004;48.080;11.600;2023-05-03T15:04:49;15.90;99.90
5956;DHT22;3004;48.080;11.600;2023-05-03T15:07:20;15.90;99.90
5956;DHT22;3004;48.080;11.600;2023-05-03T15:09:47;15.90;99.90
5956;DHT22;3004;48.080;11.600;2023-05-03T15:12:14;16.10;99.90
5956;DHT22;3004;48.080;11.600;2023-05-03T15:14:43;16.10;99.90
5956;DHT22;3004;48.080;11.600;2023-05-03T15:17:11;16.20;99.90
5956;DHT22;3004;48.080;11.600;2023-05-03T15:19:40;16.50;99.90
5956;DHT22;3004;48.080;11.600;2023-05-03T15:22:10;16.30;99.90
5956;DHT22;3004;48.080;11.600;2023-05-03T15:24:40;16.10;99.90
5956;DHT22;3004;48.080;11.600;2023-05-03T15:27:07;15.70;99.90
5956;DHT22;3004;48.080;11.600;2023-05-03T15:29:35;15.50;99.90
5956;DHT22;3004;48.080;11.600;2023-05-03T15:32:02;15.60;99.90
5956;DHT22;3004;48.080;11.600;2023-05-03T15:34:29;15.90;99.90
5956;DHT22;3004;48.080;11.600;2023-05-03T15:37:06;15.80;99.90
5956;DHT22;3004;48.080;11.600;2023-05-03T15:39:38;16.00;99.90
5956;DHT22;3004;48.080;11.600;2023-05-03T15:42:07;16.10;99.90
5956;DHT22;3004;48.080;11.600;2023-05-03T15:44:38;15.70;99.90
5956;DHT22;3004;48.080;11.600;2023-05-03T15:47:11;15.30;99.90
5956;DHT22;3004;48.080;11.600;2023-05-03T15:49:38;15.30;99.90
5956;DHT22;3004;48.080;11.600;2023-05-03T15:52:05;15.20;99.90
5956;DHT22;3004;48.080;11.600;2023-05-03T15:54:40;15.20;99.90
5956;DHT22;3004;48.080;11.600;2023-05-03T15:58:20;15.10;99.90
5956;DHT22;3004;48.080;11.600;2023-05-03T16:04:02;15.10;99.90
5956;DHT22;3004;48.080;11.600;2023-05-03T16:53:23;14.90;99.90
5956;DHT22;3004;48.080;11.600;2023-05-03T17:00:01;14.90;99.90
5956;DHT22;3004;48.080;11.600;2023-05-03T17:09:57;14.90;99.90
5956;DHT22;3004;48.080;11.600;2023-05-03T17:31:42;14.50;99.90